sensor_id;sensor_type;location;lat;lon;timestamp;P1;durP1;ratioP1;P2;durP2;ratioP2
16179;SDS011;8196;49.428;10.906;2022-09-29T00:00:23;6.90;;;5.97;;
16179;SDS011;8196;49.428;10.906;2022-09-29T00:02:52;7.07;;;6.10;;
16179;SDS011;8196;49.428;10.906;2022-09-29T00:05:19;6.63;;;5.97;;
16179;SDS011;8196;49.428;10.906;2022-09-29T00:07:46;6.63;;;5.90;;
16179;SDS011;8196;49.428;10.906;2022-09-29T00:10:13;6.63;;;6.03;;
16179;SDS011;8196;49.428;10.906;2022-09-29T00:12:40;6.47;;;5.85;;
16179;SDS011;8196;49.428;10.906;2022-09-29T00:15:06;7.23;;;5.40;;
16179;SDS011;8196;49.428;10.906;2022-09-29T00:17:33;6.15;;;5.43;;
16179;SDS011;8196;49.428;10.906;2022-09-29T00:20:00;6.25;;;5.65;;
16179;SDS011;8196;49.428;10.906;2022-09-29T00:22:27;6.00;;;5.40;;
16179;SDS011;8196;49.428;10.906;2022-09-29T00:24:54;6.57;;;5.97;;
16179;SDS011;8196;49.428;10.906;2022-09-29T00:27:20;6.07;;;5.40;;
16179;SDS011;8196;49.428;10.906;2022-09-29T00:29:47;6.13;;;5.53;;
16179;SDS011;8196;49.428;10.906;2022-09-29T00:32:14;5.95;;;5.40;;
16179;SDS011;8196;49.428;10.906;2022-09-29T00:34:40;6.40;;;5.50;;
16179;SDS011;8196;49.428;10.906;2022-09-29T00:37:07;5.75;;;5.22;;
16179;SDS011;8196;49.428;10.906;2022-09-29T00:39:34;6.50;;;5.80;;
16179;SDS011;8196;49.428;10.906;2022-09-29T00:42:00;6.32;;;5.20;;
16179;SDS011;8196;49.428;10.906;2022-09-29T00:47:34;6.40;;;5.47;;
16179;SDS011;8196;49.428;10.906;2022-09-29T00:50:05;6.20;;;5.60;;
16179;SDS011;8196;49.428;10.906;2022-09-29T00:52:43;6.38;;;5.68;;
16179;SDS011;8196;49.428;10.906;2022-09-29T00:55:17;5.82;;;5.32;;
16179;SDS011;8196;49.428;10.906;2022-09-29T00:57:53;4.93;;;4.53;;
16179;SDS011;8196;49.428;10.906;2022-09-29T01:00:21;5.90;;;5.40;;
16179;SDS011;8196;49.428;10.906;2022-09-29T01:02:49;6.07;;;4.90;;
16179;SDS011;8196;49.428;10.906;2022-09-29T01:05:20;5.90;;;4.90;;
16179;SDS011;8196;49.428;10.906;2022-09-29T01:07:53;5.38;;;4.88;;
16179;SDS011;8196;49.428;10.906;2022-09-29T01:10:20;6.35;;;4.60;;
16179;SDS011;8196;49.428;10.906;2022-09-29T01:12:47;5.15;;;4.65;;
16179;SDS011;8196;49.428;10.906;2022-09-29T01:15:15;5.20;;;4.50;;
16179;SDS011;8196;49.428;10.906;2022-09-29T01:17:44;6.10;;;5.22;;
16179;SDS011;8196;49.428;10.906;2022-09-29T01:20:13;5.65;;;5.00;;
16179;SDS011;8196;49.428;10.906;2022-09-29T01:22:51;5.60;;;5.10;;
16179;SDS011;8196;49.428;10.906;2022-09-29T01:25:51;5.70;;;5.10;;
16179;SDS011;8196;49.428;10.906;2022-09-29T01:30:55;5.10;;;4.60;;
16179;SDS011;8196;49.428;10.906;2022-09-29T01:38:53;5.30;;;4.80;;
16179;SDS011;8196;49.428;10.906;2022-09-29T01:41:29;5.45;;;4.95;;
16179;SDS011;8196;49.428;10.906;2022-09-29T01:46:36;6.05;;;4.90;;
16179;SDS011;8196;49.428;10.906;2022-09-29T01:49:09;5.70;;;5.00;;
16179;SDS011;8196;49.428;10.906;2022-09-29T01:51:40;5.80;;;5.20;;
16179;SDS011;8196;49.428;10.906;2022-09-29T01:54:16;5.72;;;5.13;;
16179;SDS011;8196;49.428;10.906;2022-09-29T01:59:42;5.90;;;4.93;;
16179;SDS011;8196;49.428;10.906;2022-09-29T02:02:23;5.55;;;5.00;;
16179;SDS011;8196;49.428;10.906;2022-09-29T02:04:59;5.80;;;5.20;;
16179;SDS011;8196;49.428;10.906;2022-09-29T02:07:32;6.40;;;5.00;;
16179;SDS011;8196;49.428;10.906;2022-09-29T02:10:04;6.40;;;5.50;;
16179;SDS011;8196;49.428;10.906;2022-09-29T02:12:51;6.20;;;5.70;;
16179;SDS011;8196;49.428;10.906;2022-09-29T02:15:23;6.03;;;5.50;;
16179;SDS011;8196;49.428;10.906;2022-09-29T02:17:54;5.63;;;5.03;;
16179;SDS011;8196;49.428;10.906;2022-09-29T02:20:27;7.00;;;5.47;;
16179;SDS011;8196;49.428;10.906;2022-09-29T02:22:54;5.72;;;5.22;;
16179;SDS011;8196;49.428;10.906;2022-09-29T02:25:21;6.20;;;5.60;;
16179;SDS011;8196;49.428;10.906;2022-09-29T02:27:48;6.32;;;5.70;;
16179;SDS011;8196;49.428;10.906;2022-09-29T02:30:16;6.38;;;5.80;;
16179;SDS011;8196;49.428;10.906;2022-09-29T02:32:45;6.43;;;5.77;;
16179;SDS011;8196;49.428;10.906;2022-09-29T02:35:12;6.60;;;6.00;;
16179;SDS011;8196;49.428;10.906;2022-09-29T02:43:38;6.30;;;5.70;;
16179;SDS011;8196;49.428;10.906;2022-09-29T02:46:13;5.75;;;5.25;;
16179;SDS011;8196;49.428;10.906;2022-09-29T02:51:43;6.10;;;5.50;;
16179;SDS011;8196;49.428;10.906;2022-09-29T03:02:34;6.17;;;5.40;;
16179;SDS011;8196;49.428;10.906;2022-09-29T03:05:03;6.15;;;5.55;;
16179;SDS011;8196;49.428;10.906;2022-09-29T03:07:32;6.03;;;5.53;;
16179;SDS011;8196;49.428;10.906;2022-09-29T03:09:59;7.87;;;6.93;;
16179;SDS011;8196;49.428;10.906;2022-09-29T03:12:26;8.73;;;7.30;;
16179;SDS011;8196;49.428;10.906;2022-09-29T03:14:52;7.57;;;6.80;;
16179;SDS011;8196;49.428;10.906;2022-09-29T03:17:19;7.78;;;6.97;;
16179;SDS011;8196;49.428;10.906;2022-09-29T03:19:46;7.90;;;7.10;;
16179;SDS011;8196;49.428;10.906;2022-09-29T03:22:12;7.93;;;7.20;;
16179;SDS011;8196;49.428;10.906;2022-09-29T03:24:39;8.20;;;7.40;;
16179;SDS011;8196;49.428;10.906;2022-09-29T03:27:07;8.55;;;7.70;;
16179;SDS011;8196;49.428;10.906;2022-09-29T03:29:35;7.72;;;6.93;;
16179;SDS011;8196;49.428;10.906;2022-09-29T03:32:03;8.25;;;7.45;;
16179;SDS011;8196;49.428;10.906;2022-09-29T03:34:31;8.48;;;7.68;;
16179;SDS011;8196;49.428;10.906;2022-09-29T03:36:58;8.32;;;7.55;;
16179;SDS011;8196;49.428;10.906;2022-09-29T03:39:25;8.35;;;7.60;;
16179;SDS011;8196;49.428;10.906;2022-09-29T03:41:52;7.97;;;7.28;;
16179;SDS011;8196;49.428;10.906;2022-09-29T03:44:19;8.18;;;7.38;;
16179;SDS011;8196;49.428;10.906;2022-09-29T03:46:46;8.73;;;7.18;;
16179;SDS011;8196;49.428;10.906;2022-09-29T03:49:13;7.88;;;7.00;;
16179;SDS011;8196;49.428;10.906;2022-09-29T03:51:41;8.75;;;7.90;;
16179;SDS011;8196;49.428;10.906;2022-09-29T03:54:08;8.77;;;7.82;;
16179;SDS011;8196;49.428;10.906;2022-09-29T03:56:36;9.02;;;8.13;;
16179;SDS011;8196;49.428;10.906;2022-09-29T03:59:03;9.00;;;8.10;;
16179;SDS011;8196;49.428;10.906;2022-09-29T04:01:33;8.70;;;7.80;;
16179;SDS011;8196;49.428;10.906;2022-09-29T04:04:01;9.02;;;7.82;;
16179;SDS011;8196;49.428;10.906;2022-09-29T04:06:28;8.27;;;7.47;;
16179;SDS011;8196;49.428;10.906;2022-09-29T04:08:54;8.65;;;7.85;;
16179;SDS011;8196;49.428;10.906;2022-09-29T04:11:21;10.40;;;9.40;;
16179;SDS011;8196;49.428;10.906;2022-09-29T04:13:48;11.73;;;10.63;;
16179;SDS011;8196;49.428;10.906;2022-09-29T04:16:14;11.23;;;10.13;;
16179;SDS011;8196;49.428;10.906;2022-09-29T04:18:41;10.60;;;9.48;;
16179;SDS011;8196;49.428;10.906;2022-09-29T04:21:08;9.98;;;9.00;;
16179;SDS011;8196;49.428;10.906;2022-09-29T04:23:34;10.60;;;9.40;;
16179;SDS011;8196;49.428;10.906;2022-09-29T04:26:01;11.68;;;9.30;;
16179;SDS011;8196;49.428;10.906;2022-09-29T04:28:30;9.88;;;8.95;;
16179;SDS011;8196;49.428;10.906;2022-09-29T04:30:58;10.05;;;9.05;;
16179;SDS011;8196;49.428;10.906;2022-09-29T04:33:25;10.60;;;9.50;;
16179;SDS011;8196;49.428;10.906;2022-09-29T04:35:51;10.15;;;9.18;;
16179;SDS011;8196;49.428;10.906;2022-09-29T04:38:18;12.32;;;11.13;;
16179;SDS011;8196;49.428;10.906;2022-09-29T04:40:45;11.90;;;10.82;;
16179;SDS011;8196;49.428;10.906;2022-09-29T04:43:13;11.95;;;10.85;;
16179;SDS011;8196;49.428;10.906;2022-09-29T04:45:40;11.00;;;9.83;;
16179;SDS011;8196;49.428;10.906;2022-09-29T04:48:06;10.73;;;9.63;;
16179;SDS011;8196;49.428;10.906;2022-09-29T04:50:33;10.52;;;9.52;;
16179;SDS011;8196;49.428;10.906;2022-09-29T04:53:00;11.20;;;10.20;;
16179;SDS011;8196;49.428;10.906;2022-09-29T04:55:27;10.90;;;9.80;;
16179;SDS011;8196;49.428;10.906;2022-09-29T04:57:53;12.27;;;10.63;;
16179;SDS011;8196;49.428;10.906;2022-09-29T05:00:20;11.25;;;10.15;;
16179;SDS011;8196;49.428;10.906;2022-09-29T05:02:47;11.52;;;10.43;;
16179;SDS011;8196;49.428;10.906;2022-09-29T05:05:15;10.65;;;9.55;;
16179;SDS011;8196;49.428;10.906;2022-09-29T05:07:42;11.68;;;10.57;;
16179;SDS011;8196;49.428;10.906;2022-09-29T05:10:09;11.10;;;10.00;;
16179;SDS011;8196;49.428;10.906;2022-09-29T05:12:36;11.73;;;10.63;;
16179;SDS011;8196;49.428;10.906;2022-09-29T05:15:03;11.18;;;10.18;;
16179;SDS011;8196;49.428;10.906;2022-09-29T05:17:31;10.82;;;9.73;;
16179;SDS011;8196;49.428;10.906;2022-09-29T05:19:58;11.90;;;9.57;;
16179;SDS011;8196;49.428;10.906;2022-09-29T05:22:25;10.95;;;9.93;;
16179;SDS011;8196;49.428;10.906;2022-09-29T05:24:52;10.60;;;9.60;;
16179;SDS011;8196;49.428;10.906;2022-09-29T05:27:19;9.93;;;8.93;;
16179;SDS011;8196;49.428;10.906;2022-09-29T05:29:47;10.15;;;9.05;;
16179;SDS011;8196;49.428;10.906;2022-09-29T05:32:14;10.57;;;9.48;;
16179;SDS011;8196;49.428;10.906;2022-09-29T05:34:41;10.63;;;9.63;;
16179;SDS011;8196;49.428;10.906;2022-09-29T05:37:08;10.95;;;9.85;;
16179;SDS011;8196;49.428;10.906;2022-09-29T05:39:35;10.68;;;9.57;;
16179;SDS011;8196;49.428;10.906;2022-09-29T05:42:03;10.23;;;9.32;;
16179;SDS011;8196;49.428;10.906;2022-09-29T05:44:31;10.20;;;9.20;;
16179;SDS011;8196;49.428;10.906;2022-09-29T05:46:58;10.80;;;9.73;;
16179;SDS011;8196;49.428;10.906;2022-09-29T05:49:25;10.70;;;9.47;;
16179;SDS011;8196;49.428;10.906;2022-09-29T05:51:52;10.38;;;8.57;;
16179;SDS011;8196;49.428;10.906;2022-09-29T05:54:19;10.15;;;9.05;;
16179;SDS011;8196;49.428;10.906;2022-09-29T05:56:46;11.10;;;10.00;;
16179;SDS011;8196;49.428;10.906;2022-09-29T05:59:13;11.57;;;10.33;;
16179;SDS011;8196;49.428;10.906;2022-09-29T06:01:40;11.85;;;10.65;;
16179;SDS011;8196;49.428;10.906;2022-09-29T06:04:06;12.20;;;10.70;;
16179;SDS011;8196;49.428;10.906;2022-09-29T06:06:33;12.55;;;10.30;;
16179;SDS011;8196;49.428;10.906;2022-09-29T06:09:01;10.75;;;9.05;;
16179;SDS011;8196;49.428;10.906;2022-09-29T06:11:29;9.23;;;8.30;;
16179;SDS011;8196;49.428;10.906;2022-09-29T06:13:57;11.63;;;10.05;;
16179;SDS011;8196;49.428;10.906;2022-09-29T06:16:25;11.33;;;9.87;;
16179;SDS011;8196;49.428;10.906;2022-09-29T06:18:54;12.20;;;10.40;;
16179;SDS011;8196;49.428;10.906;2022-09-29T06:21:23;10.90;;;9.73;;
16179;SDS011;8196;49.428;10.906;2022-09-29T06:23:53;10.63;;;9.68;;
16179;SDS011;8196;49.428;10.906;2022-09-29T06:26:21;12.23;;;10.48;;
16179;SDS011;8196;49.428;10.906;2022-09-29T06:28:50;12.40;;;11.20;;
16179;SDS011;8196;49.428;10.906;2022-09-29T06:31:18;13.20;;;11.55;;
16179;SDS011;8196;49.428;10.906;2022-09-29T06:33:46;13.30;;;11.90;;
16179;SDS011;8196;49.428;10.906;2022-09-29T06:36:15;13.13;;;11.73;;
16179;SDS011;8196;49.428;10.906;2022-09-29T06:39:04;12.38;;;10.88;;
16179;SDS011;8196;49.428;10.906;2022-09-29T06:41:32;11.85;;;10.68;;
16179;SDS011;8196;49.428;10.906;2022-09-29T06:44:00;12.05;;;10.85;;
16179;SDS011;8196;49.428;10.906;2022-09-29T06:46:27;11.30;;;10.02;;
16179;SDS011;8196;49.428;10.906;2022-09-29T06:48:54;11.63;;;10.43;;
16179;SDS011;8196;49.428;10.906;2022-09-29T06:51:22;11.60;;;10.32;;
16179;SDS011;8196;49.428;10.906;2022-09-29T06:54:03;10.98;;;8.40;;
16179;SDS011;8196;49.428;10.906;2022-09-29T06:56:37;10.25;;;9.25;;
16179;SDS011;8196;49.428;10.906;2022-09-29T06:59:04;9.63;;;8.63;;
16179;SDS011;8196;49.428;10.906;2022-09-29T07:01:31;12.82;;;8.73;;
16179;SDS011;8196;49.428;10.906;2022-09-29T07:03:57;10.30;;;9.40;;
16179;SDS011;8196;49.428;10.906;2022-09-29T07:06:27;10.65;;;9.55;;
16179;SDS011;8196;49.428;10.906;2022-09-29T07:08:55;10.07;;;9.15;;
16179;SDS011;8196;49.428;10.906;2022-09-29T07:11:24;12.32;;;8.82;;
16179;SDS011;8196;49.428;10.906;2022-09-29T07:13:51;14.27;;;8.25;;
16179;SDS011;8196;49.428;10.906;2022-09-29T07:16:20;10.05;;;8.27;;
16179;SDS011;8196;49.428;10.906;2022-09-29T07:18:49;12.30;;;9.43;;
16179;SDS011;8196;49.428;10.906;2022-09-29T07:21:17;9.15;;;8.25;;
16179;SDS011;8196;49.428;10.906;2022-09-29T07:23:45;12.73;;;9.10;;
16179;SDS011;8196;49.428;10.906;2022-09-29T07:26:13;16.65;;;8.05;;
16179;SDS011;8196;49.428;10.906;2022-09-29T07:28:41;10.82;;;8.48;;
16179;SDS011;8196;49.428;10.906;2022-09-29T07:31:10;11.27;;;10.18;;
16179;SDS011;8196;49.428;10.906;2022-09-29T07:33:41;10.00;;;9.00;;
16179;SDS011;8196;49.428;10.906;2022-09-29T07:36:09;9.15;;;8.25;;
16179;SDS011;8196;49.428;10.906;2022-09-29T07:38:36;8.85;;;8.07;;
16179;SDS011;8196;49.428;10.906;2022-09-29T07:41:04;8.48;;;7.57;;
16179;SDS011;8196;49.428;10.906;2022-09-29T07:43:33;8.73;;;7.75;;
16179;SDS011;8196;49.428;10.906;2022-09-29T07:46:00;8.68;;;7.78;;
16179;SDS011;8196;49.428;10.906;2022-09-29T07:48:27;8.82;;;8.02;;
16179;SDS011;8196;49.428;10.906;2022-09-29T07:50:59;9.35;;;7.82;;
16179;SDS011;8196;49.428;10.906;2022-09-29T07:53:28;8.55;;;7.75;;
16179;SDS011;8196;49.428;10.906;2022-09-29T07:55:55;8.57;;;7.78;;
16179;SDS011;8196;49.428;10.906;2022-09-29T07:58:29;8.35;;;7.55;;
16179;SDS011;8196;49.428;10.906;2022-09-29T08:00:57;7.88;;;7.15;;
16179;SDS011;8196;49.428;10.906;2022-09-29T08:03:25;8.20;;;7.50;;
16179;SDS011;8196;49.428;10.906;2022-09-29T08:05:52;9.02;;;7.45;;
16179;SDS011;8196;49.428;10.906;2022-09-29T08:08:19;7.82;;;7.13;;
16179;SDS011;8196;49.428;10.906;2022-09-29T08:10:45;8.25;;;7.40;;
16179;SDS011;8196;49.428;10.906;2022-09-29T08:13:18;8.30;;;7.60;;
16179;SDS011;8196;49.428;10.906;2022-09-29T08:15:45;8.52;;;7.43;;
16179;SDS011;8196;49.428;10.906;2022-09-29T08:18:12;7.70;;;7.00;;
16179;SDS011;8196;49.428;10.906;2022-09-29T08:20:39;8.35;;;7.55;;
16179;SDS011;8196;49.428;10.906;2022-09-29T08:23:05;7.57;;;6.87;;
16179;SDS011;8196;49.428;10.906;2022-09-29T08:25:32;7.28;;;6.53;;
16179;SDS011;8196;49.428;10.906;2022-09-29T08:28:01;7.20;;;6.60;;
16179;SDS011;8196;49.428;10.906;2022-09-29T08:30:28;7.65;;;6.72;;
16179;SDS011;8196;49.428;10.906;2022-09-29T08:32:55;7.60;;;6.90;;
16179;SDS011;8196;49.428;10.906;2022-09-29T08:35:21;7.35;;;6.63;;
16179;SDS011;8196;49.428;10.906;2022-09-29T08:37:48;7.00;;;6.40;;
16179;SDS011;8196;49.428;10.906;2022-09-29T08:40:15;7.25;;;6.55;;
16179;SDS011;8196;49.428;10.906;2022-09-29T08:42:59;7.00;;;6.32;;
16179;SDS011;8196;49.428;10.906;2022-09-29T08:45:55;6.40;;;5.80;;
16179;SDS011;8196;49.428;10.906;2022-09-29T08:48:27;6.63;;;6.03;;
16179;SDS011;8196;49.428;10.906;2022-09-29T08:51:00;7.30;;;6.60;;
16179;SDS011;8196;49.428;10.906;2022-09-29T08:53:33;6.45;;;5.93;;
16179;SDS011;8196;49.428;10.906;2022-09-29T08:56:03;6.78;;;6.18;;
16179;SDS011;8196;49.428;10.906;2022-09-29T08:58:34;6.70;;;6.10;;
16179;SDS011;8196;49.428;10.906;2022-09-29T09:06:44;6.90;;;6.20;;
16179;SDS011;8196;49.428;10.906;2022-09-29T09:17:26;6.75;;;6.10;;
16179;SDS011;8196;49.428;10.906;2022-09-29T09:20:34;6.93;;;6.20;;
16179;SDS011;8196;49.428;10.906;2022-09-29T09:23:17;7.07;;;6.10;;
16179;SDS011;8196;49.428;10.906;2022-09-29T09:25:54;6.40;;;5.70;;
16179;SDS011;8196;49.428;10.906;2022-09-29T09:28:27;6.10;;;5.45;;
16179;SDS011;8196;49.428;10.906;2022-09-29T09:36:06;6.68;;;5.20;;
16179;SDS011;8196;49.428;10.906;2022-09-29T09:39:17;5.28;;;4.88;;
16179;SDS011;8196;49.428;10.906;2022-09-29T09:41:54;5.93;;;5.33;;
16179;SDS011;8196;49.428;10.906;2022-09-29T09:47:00;6.43;;;5.70;;
16179;SDS011;8196;49.428;10.906;2022-09-29T09:49:48;7.22;;;5.63;;
16179;SDS011;8196;49.428;10.906;2022-09-29T09:52:28;6.10;;;5.55;;
16179;SDS011;8196;49.428;10.906;2022-09-29T09:55:03;5.43;;;4.78;;
16179;SDS011;8196;49.428;10.906;2022-09-29T10:00:10;5.50;;;5.00;;
16179;SDS011;8196;49.428;10.906;2022-09-29T10:02:44;5.47;;;4.70;;
16179;SDS011;8196;49.428;10.906;2022-09-29T10:05:14;5.33;;;4.83;;
16179;SDS011;8196;49.428;10.906;2022-09-29T10:07:43;4.53;;;4.13;;
16179;SDS011;8196;49.428;10.906;2022-09-29T10:10:13;4.70;;;4.30;;
16179;SDS011;8196;49.428;10.906;2022-09-29T10:12:42;5.47;;;4.97;;
16179;SDS011;8196;49.428;10.906;2022-09-29T10:15:13;5.53;;;4.88;;
16179;SDS011;8196;49.428;10.906;2022-09-29T10:17:47;5.40;;;4.80;;
16179;SDS011;8196;49.428;10.906;2022-09-29T10:20:27;6.88;;;4.50;;
16179;SDS011;8196;49.428;10.906;2022-09-29T10:28:40;6.50;;;5.68;;
16179;SDS011;8196;49.428;10.906;2022-09-29T10:31:17;6.03;;;4.70;;
16179;SDS011;8196;49.428;10.906;2022-09-29T10:33:50;5.30;;;4.00;;
16179;SDS011;8196;49.428;10.906;2022-09-29T10:36:20;4.60;;;4.00;;
16179;SDS011;8196;49.428;10.906;2022-09-29T10:38:49;5.30;;;4.15;;
16179;SDS011;8196;49.428;10.906;2022-09-29T10:41:17;6.38;;;4.20;;
16179;SDS011;8196;49.428;10.906;2022-09-29T10:43:46;4.93;;;4.00;;
16179;SDS011;8196;49.428;10.906;2022-09-29T10:46:34;5.20;;;4.30;;
16179;SDS011;8196;49.428;10.906;2022-09-29T10:49:19;5.80;;;4.72;;
16179;SDS011;8196;49.428;10.906;2022-09-29T10:51:52;7.25;;;4.72;;
16179;SDS011;8196;49.428;10.906;2022-09-29T10:54:20;5.20;;;4.38;;
16179;SDS011;8196;49.428;10.906;2022-09-29T10:56:51;4.82;;;4.00;;
16179;SDS011;8196;49.428;10.906;2022-09-29T10:59:20;5.73;;;4.30;;
16179;SDS011;8196;49.428;10.906;2022-09-29T11:01:49;5.25;;;4.00;;
16179;SDS011;8196;49.428;10.906;2022-09-29T11:06:52;4.72;;;3.58;;
16179;SDS011;8196;49.428;10.906;2022-09-29T11:17:18;4.97;;;3.50;;
16179;SDS011;8196;49.428;10.906;2022-09-29T11:20:00;6.53;;;3.33;;
16179;SDS011;8196;49.428;10.906;2022-09-29T11:25:17;3.55;;;2.60;;
16179;SDS011;8196;49.428;10.906;2022-09-29T11:28:12;3.65;;;2.70;;
16179;SDS011;8196;49.428;10.906;2022-09-29T11:33:41;4.10;;;2.30;;
16179;SDS011;8196;49.428;10.906;2022-09-29T11:36:16;4.40;;;2.40;;
16179;SDS011;8196;49.428;10.906;2022-09-29T11:39:02;2.70;;;2.30;;
16179;SDS011;8196;49.428;10.906;2022-09-29T11:41:49;4.95;;;2.75;;
16179;SDS011;8196;49.428;10.906;2022-09-29T11:47:25;3.38;;;2.50;;
16179;SDS011;8196;49.428;10.906;2022-09-29T11:50:00;2.50;;;2.20;;
16179;SDS011;8196;49.428;10.906;2022-09-29T11:52:37;3.03;;;1.70;;
16179;SDS011;8196;49.428;10.906;2022-09-29T11:55:24;2.78;;;1.98;;
16179;SDS011;8196;49.428;10.906;2022-09-29T12:00:56;3.35;;;2.05;;
16179;SDS011;8196;49.428;10.906;2022-09-29T12:09:18;3.00;;;1.87;;
16179;SDS011;8196;49.428;10.906;2022-09-29T12:11:58;3.25;;;1.80;;
16179;SDS011;8196;49.428;10.906;2022-09-29T12:17:39;4.28;;;2.22;;
16179;SDS011;8196;49.428;10.906;2022-09-29T12:20:15;3.28;;;2.10;;
16179;SDS011;8196;49.428;10.906;2022-09-29T12:22:49;3.22;;;1.80;;
16179;SDS011;8196;49.428;10.906;2022-09-29T12:25:19;2.83;;;1.95;;
16179;SDS011;8196;49.428;10.906;2022-09-29T12:27:51;2.85;;;2.10;;
16179;SDS011;8196;49.428;10.906;2022-09-29T12:38:05;3.47;;;2.20;;
16179;SDS011;8196;49.428;10.906;2022-09-29T12:40:38;4.40;;;2.17;;
16179;SDS011;8196;49.428;10.906;2022-09-29T12:43:11;2.70;;;1.90;;
16179;SDS011;8196;49.428;10.906;2022-09-29T12:45:58;2.88;;;1.58;;
16179;SDS011;8196;49.428;10.906;2022-09-29T12:51:23;3.05;;;1.42;;
16179;SDS011;8196;49.428;10.906;2022-09-29T12:57:03;2.63;;;1.70;;
16179;SDS011;8196;49.428;10.906;2022-09-29T13:02:16;3.47;;;1.70;;
16179;SDS011;8196;49.428;10.906;2022-09-29T13:18:43;2.53;;;1.40;;
16179;SDS011;8196;49.428;10.906;2022-09-29T13:22:08;1.83;;;1.33;;
16179;SDS011;8196;49.428;10.906;2022-09-29T13:27:40;1.80;;;1.35;;
16179;SDS011;8196;49.428;10.906;2022-09-29T13:32:38;2.40;;;1.20;;
16179;SDS011;8196;49.428;10.906;2022-09-29T13:35:12;2.67;;;1.20;;
16179;SDS011;8196;49.428;10.906;2022-09-29T13:37:45;1.90;;;1.27;;
16179;SDS011;8196;49.428;10.906;2022-09-29T13:40:18;1.90;;;1.30;;
16179;SDS011;8196;49.428;10.906;2022-09-29T13:42:48;1.30;;;1.10;;
16179;SDS011;8196;49.428;10.906;2022-09-29T13:47:47;1.70;;;1.50;;
16179;SDS011;8196;49.428;10.906;2022-09-29T13:53:33;2.78;;;1.60;;
16179;SDS011;8196;49.428;10.906;2022-09-29T13:58:34;34.87;;;27.27;;
16179;SDS011;8196;49.428;10.906;2022-09-29T14:01:07;7.13;;;4.88;;
16179;SDS011;8196;49.428;10.906;2022-09-29T14:03:36;4.35;;;2.75;;
16179;SDS011;8196;49.428;10.906;2022-09-29T14:09:07;2.72;;;1.70;;
16179;SDS011;8196;49.428;10.906;2022-09-29T14:14:15;2.25;;;1.80;;
16179;SDS011;8196;49.428;10.906;2022-09-29T14:16:51;1.55;;;1.27;;
16179;SDS011;8196;49.428;10.906;2022-09-29T14:22:03;2.40;;;1.30;;
16179;SDS011;8196;49.428;10.906;2022-09-29T14:24:51;2.78;;;1.83;;
16179;SDS011;8196;49.428;10.906;2022-09-29T14:32:26;2.78;;;1.67;;
16179;SDS011;8196;49.428;10.906;2022-09-29T14:35:12;2.15;;;1.45;;
16179;SDS011;8196;49.428;10.906;2022-09-29T14:37:40;2.50;;;1.65;;
16179;SDS011;8196;49.428;10.906;2022-09-29T14:40:07;3.08;;;1.58;;
16179;SDS011;8196;49.428;10.906;2022-09-29T14:43:02;2.53;;;1.30;;
16179;SDS011;8196;49.428;10.906;2022-09-29T14:45:34;1.85;;;1.20;;
16179;SDS011;8196;49.428;10.906;2022-09-29T14:49:02;1.08;;;0.98;;
16179;SDS011;8196;49.428;10.906;2022-09-29T14:51:54;2.30;;;1.10;;
16179;SDS011;8196;49.428;10.906;2022-09-29T14:54:35;2.78;;;1.30;;
16179;SDS011;8196;49.428;10.906;2022-09-29T14:57:29;1.83;;;1.40;;
16179;SDS011;8196;49.428;10.906;2022-09-29T15:00:01;2.38;;;1.60;;
16179;SDS011;8196;49.428;10.906;2022-09-29T15:02:41;1.80;;;1.13;;
16179;SDS011;8196;49.428;10.906;2022-09-29T15:05:35;2.28;;;1.20;;
16179;SDS011;8196;49.428;10.906;2022-09-29T15:08:14;2.55;;;1.23;;
16179;SDS011;8196;49.428;10.906;2022-09-29T15:10:51;1.38;;;1.17;;
16179;SDS011;8196;49.428;10.906;2022-09-29T15:13:33;2.57;;;2.37;;
16179;SDS011;8196;49.428;10.906;2022-09-29T15:16:02;5.43;;;4.20;;
16179;SDS011;8196;49.428;10.906;2022-09-29T15:18:55;2.95;;;1.65;;
16179;SDS011;8196;49.428;10.906;2022-09-29T15:21:38;3.90;;;1.55;;
16179;SDS011;8196;49.428;10.906;2022-09-29T15:26:49;4.28;;;1.52;;
16179;SDS011;8196;49.428;10.906;2022-09-29T15:29:16;3.03;;;1.50;;
16179;SDS011;8196;49.428;10.906;2022-09-29T15:31:45;2.97;;;1.23;;
16179;SDS011;8196;49.428;10.906;2022-09-29T15:34:18;1.30;;;1.10;;
16179;SDS011;8196;49.428;10.906;2022-09-29T15:36:49;2.70;;;1.63;;
16179;SDS011;8196;49.428;10.906;2022-09-29T15:42:16;2.78;;;1.90;;
16179;SDS011;8196;49.428;10.906;2022-09-29T15:44:50;1.90;;;1.30;;
16179;SDS011;8196;49.428;10.906;2022-09-29T15:47:21;2.58;;;1.98;;
16179;SDS011;8196;49.428;10.906;2022-09-29T15:49:54;10.38;;;9.07;;
16179;SDS011;8196;49.428;10.906;2022-09-29T15:52:21;7.93;;;6.57;;
16179;SDS011;8196;49.428;10.906;2022-09-29T15:54:54;6.17;;;5.20;;
16179;SDS011;8196;49.428;10.906;2022-09-29T16:05:33;3.57;;;1.30;;
16179;SDS011;8196;49.428;10.906;2022-09-29T16:08:23;5.10;;;1.40;;
16179;SDS011;8196;49.428;10.906;2022-09-29T16:10:54;4.32;;;1.42;;
16179;SDS011;8196;49.428;10.906;2022-09-29T16:13:27;5.10;;;1.30;;
16179;SDS011;8196;49.428;10.906;2022-09-29T16:15:59;2.33;;;1.50;;
16179;SDS011;8196;49.428;10.906;2022-09-29T16:21:14;3.27;;;2.47;;
16179;SDS011;8196;49.428;10.906;2022-09-29T16:26:18;5.82;;;4.22;;
16179;SDS011;8196;49.428;10.906;2022-09-29T16:31:35;3.50;;;1.40;;
16179;SDS011;8196;49.428;10.906;2022-09-29T16:36:53;8.25;;;7.45;;
16179;SDS011;8196;49.428;10.906;2022-09-29T16:39:23;8.10;;;7.30;;
16179;SDS011;8196;49.428;10.906;2022-09-29T16:41:53;4.28;;;3.25;;
16179;SDS011;8196;49.428;10.906;2022-09-29T16:44:23;3.85;;;3.45;;
16179;SDS011;8196;49.428;10.906;2022-09-29T16:46:57;3.45;;;3.15;;
16179;SDS011;8196;49.428;10.906;2022-09-29T16:49:32;4.05;;;2.20;;
16179;SDS011;8196;49.428;10.906;2022-09-29T16:52:20;3.60;;;1.98;;
16179;SDS011;8196;49.428;10.906;2022-09-29T16:57:54;5.33;;;4.77;;
16179;SDS011;8196;49.428;10.906;2022-09-29T17:00:25;6.22;;;5.63;;
16179;SDS011;8196;49.428;10.906;2022-09-29T17:02:52;5.80;;;4.20;;
16179;SDS011;8196;49.428;10.906;2022-09-29T17:05:20;5.20;;;4.70;;
16179;SDS011;8196;49.428;10.906;2022-09-29T17:07:48;4.80;;;2.63;;
16179;SDS011;8196;49.428;10.906;2022-09-29T17:10:17;3.70;;;2.00;;
16179;SDS011;8196;49.428;10.906;2022-09-29T17:12:45;2.22;;;2.03;;
16179;SDS011;8196;49.428;10.906;2022-09-29T17:15:13;5.40;;;2.47;;
16179;SDS011;8196;49.428;10.906;2022-09-29T17:17:39;2.83;;;2.30;;
16179;SDS011;8196;49.428;10.906;2022-09-29T17:20:12;4.20;;;2.63;;
16179;SDS011;8196;49.428;10.906;2022-09-29T17:22:40;4.85;;;3.00;;
16179;SDS011;8196;49.428;10.906;2022-09-29T17:25:08;3.65;;;2.72;;
16179;SDS011;8196;49.428;10.906;2022-09-29T17:27:36;4.93;;;2.80;;
16179;SDS011;8196;49.428;10.906;2022-09-29T17:30:24;4.07;;;3.00;;
16179;SDS011;8196;49.428;10.906;2022-09-29T17:32:54;4.40;;;2.95;;
16179;SDS011;8196;49.428;10.906;2022-09-29T17:35:24;4.18;;;3.30;;
16179;SDS011;8196;49.428;10.906;2022-09-29T17:38:01;4.10;;;3.17;;
16179;SDS011;8196;49.428;10.906;2022-09-29T17:43:00;4.97;;;3.83;;
16179;SDS011;8196;49.428;10.906;2022-09-29T17:45:27;5.00;;;4.60;;
16179;SDS011;8196;49.428;10.906;2022-09-29T17:47:56;6.07;;;4.97;;
16179;SDS011;8196;49.428;10.906;2022-09-29T17:50:31;6.27;;;5.67;;
16179;SDS011;8196;49.428;10.906;2022-09-29T17:53:02;6.50;;;5.28;;
16179;SDS011;8196;49.428;10.906;2022-09-29T17:55:30;12.35;;;11.15;;
16179;SDS011;8196;49.428;10.906;2022-09-29T17:57:57;7.68;;;6.97;;
16179;SDS011;8196;49.428;10.906;2022-09-29T18:00:25;8.15;;;7.25;;
16179;SDS011;8196;49.428;10.906;2022-09-29T18:02:54;10.63;;;8.27;;
16179;SDS011;8196;49.428;10.906;2022-09-29T18:05:23;16.83;;;11.60;;
16179;SDS011;8196;49.428;10.906;2022-09-29T18:07:52;14.68;;;10.75;;
16179;SDS011;8196;49.428;10.906;2022-09-29T18:12:55;16.20;;;11.30;;